Time;durP1;ratioP1;P1;durP2;ratioP2;P2;SDS_P1;SDS_P2;PMS_P1;PMS_P2;Temp;Humidity;BMP_temperature;BMP_pressure;BME280_temperature;BME280_humidity;BME280_pressure;Samples;Min_cycle;Max_cycle;Signal;HPM_P1;HPM_P2
2022/03/02 00:01:12;;;;;;;14.90;6.15;;;;;;;;;;5008809;28;20033;-79
2022/03/02 00:03:39;;;;;;;11.10;5.65;;;;;;;;;;5008101;28;20033;-80
2022/03/02 00:06:04;;;;;;;14.38;6.07;;;;;;;;;;5003425;28;20018;-79
2022/03/02 00:08:29;;;;;;;14.05;6.38;;;;;;;;;;5000393;28;20105;-80
2022/03/02 00:10:54;;;;;;;17.70;6.43;;;;;;;;;;5000608;28;20033;-81
2022/03/02 00:13:20;;;;;;;12.45;6.07;;;;;;;;;;4983584;28;20061;-79
2022/03/02 00:15:47;;;;;;;11.02;5.25;;;;;;;;;;5002764;28;20053;-80
2022/03/02 00:18:13;;;;;;;9.95;5.25;;;;;;;;;;5002167;28;20030;-79
2022/03/02 00:20:38;;;;;;;12.13;5.43;;;;;;;;;;5002267;28;20060;-79
2022/03/02 00:23:03;;;;;;;11.02;5.30;;;;;;;;;;5003668;28;20476;-80
2022/03/02 00:25:28;;;;;;;13.98;6.32;;;;;;;;;;5003718;28;20121;-80
2022/03/02 00:27:54;;;;;;;11.25;5.90;;;;;;;;;;4987736;28;20022;-82
2022/03/02 00:30:19;;;;;;;13.75;6.30;;;;;;;;;;5003414;28;20032;-80
2022/03/02 00:32:45;;;;;;;11.15;5.95;;;;;;;;;;5002882;28;20061;-81
2022/03/02 00:35:10;;;;;;;10.93;5.63;;;;;;;;;;5002105;28;20432;-79
2022/03/02 00:37:36;;;;;;;12.75;5.75;;;;;;;;;;5001019;28;20065;-80
2022/03/02 00:40:01;;;;;;;10.95;6.00;;;;;;;;;;5001657;28;20022;-80
2022/03/02 00:42:29;;;;;;;11.88;5.75;;;;;;;;;;5001925;28;20034;-80
2022/03/02 00:44:55;;;;;;;16.27;6.43;;;;;;;;;;5001475;28;20022;-79
2022/03/02 00:47:21;;;;;;;15.95;6.63;;;;;;;;;;5001871;28;20109;-79
2022/03/02 00:49:46;;;;;;;12.80;6.07;;;;;;;;;;5002376;28;20023;-79
2022/03/02 00:52:14;;;;;;;14.00;6.30;;;;;;;;;;5002582;28;20048;-80
2022/03/02 00:54:39;;;;;;;15.45;6.63;;;;;;;;;;5003184;28;20065;-79
2022/03/02 00:57:04;;;;;;;13.63;6.53;;;;;;;;;;4986247;28;20034;-81
2022/03/02 00:59:30;;;;;;;12.98;6.60;;;;;;;;;;5005613;28;20037;-79
2022/03/02 01:01:55;;;;;;;13.07;6.38;;;;;;;;;;5006371;28;20058;-81
2022/03/02 01:04:20;;;;;;;11.60;6.07;;;;;;;;;;5005993;28;20018;-81
2022/03/02 01:06:45;;;;;;;13.48;6.47;;;;;;;;;;5007536;28;20030;-81
2022/03/02 01:09:11;;;;;;;11.38;5.70;;;;;;;;;;5005603;28;20084;-81
2022/03/02 01:11:36;;;;;;;11.52;6.43;;;;;;;;;;4988721;28;20105;-81
2022/03/02 01:14:02;;;;;;;15.73;6.47;;;;;;;;;;5006450;28;20030;-82
2022/03/02 01:16:28;;;;;;;12.20;6.00;;;;;;;;;;5007269;28;20030;-81
2022/03/02 01:18:53;;;;;;;12.55;5.43;;;;;;;;;;5007429;28;20038;-80
2022/03/02 01:21:18;;;;;;;11.13;5.57;;;;;;;;;;4989727;28;20101;-79
2022/03/02 01:23:43;;;;;;;12.00;6.05;;;;;;;;;;5008415;28;20030;-81
2022/03/02 01:26:09;;;;;;;16.92;6.80;;;;;;;;;;5007175;28;20475;-80
2022/03/02 01:28:34;;;;;;;12.57;5.90;;;;;;;;;;5008080;28;20476;-81
2022/03/02 01:31:00;;;;;;;14.48;6.25;;;;;;;;;;5007841;28;20027;-80
2022/03/02 01:33:25;;;;;;;12.25;5.53;;;;;;;;;;4989820;28;20062;-80
2022/03/02 01:35:50;;;;;;;11.95;5.88;;;;;;;;;;5006536;28;20103;-81
2022/03/02 01:38:16;;;;;;;14.70;5.82;;;;;;;;;;5004626;28;20026;-80
2022/03/02 01:40:41;;;;;;;10.38;5.40;;;;;;;;;;4988482;28;20034;-79
2022/03/02 01:43:06;;;;;;;14.02;6.18;;;;;;;;;;5006369;28;20027;-80
2022/03/02 01:45:32;;;;;;;11.93;6.03;;;;;;;;;;5007772;28;20041;-79
2022/03/02 01:48:02;;;;;;;11.57;5.63;;;;;;;;;;5007206;28;20026;-78
2022/03/02 01:50:28;;;;;;;14.45;6.30;;;;;;;;;;5007377;28;20078;-78
2022/03/02 01:52:54;;;;;;;12.25;6.00;;;;;;;;;;4990820;28;20026;-79
2022/03/02 01:55:19;;;;;;;12.35;6.35;;;;;;;;;;5009762;28;20030;-79
2022/03/02 01:57:44;;;;;;;14.23;6.50;;;;;;;;;;5008460;28;20086;-80
2022/03/02 02:00:19;;;;;;;13.82;5.80;;;;;;;;;;4991051;28;20027;-78
2022/03/02 02:02:45;;;;;;;12.05;6.40;;;;;;;;;;5009455;28;20104;-80
2022/03/02 02:05:11;;;;;;;11.93;5.88;;;;;;;;;;5008618;28;20022;-80
2022/03/02 02:07:36;;;;;;;13.00;6.28;;;;;;;;;;5008568;28;20034;-80
2022/03/02 02:10:03;;;;;;;14.88;6.03;;;;;;;;;;5008932;28;20460;-78
2022/03/02 02:12:28;;;;;;;15.15;5.80;;;;;;;;;;4990809;28;20045;-79
2022/03/02 02:14:54;;;;;;;11.23;5.75;;;;;;;;;;5008336;28;20034;-79
2022/03/02 02:17:19;;;;;;;11.68;5.68;;;;;;;;;;5008798;28;20031;-79
2022/03/02 02:19:45;;;;;;;12.73;6.03;;;;;;;;;;5008742;28;20026;-80
2022/03/02 02:22:10;;;;;;;16.30;6.60;;;;;;;;;;5008925;28;20065;-79
2022/03/02 02:24:35;;;;;;;14.23;5.82;;;;;;;;;;5007905;28;20046;-79
2022/03/02 02:27:01;;;;;;;11.02;5.07;;;;;;;;;;4991720;28;20146;-78
2022/03/02 02:29:28;;;;;;;16.80;6.45;;;;;;;;;;5008582;28;20054;-81
2022/03/02 02:31:54;;;;;;;13.27;5.97;;;;;;;;;;5008906;28;20087;-79
2022/03/02 02:34:19;;;;;;;9.73;5.28;;;;;;;;;;5009301;28;20030;-80
2022/03/02 02:36:46;;;;;;;11.45;5.88;;;;;;;;;;4991010;28;20023;-80
2022/03/02 02:39:11;;;;;;;11.98;6.30;;;;;;;;;;5003677;28;20026;-81
2022/03/02 02:41:36;;;;;;;11.95;5.65;;;;;;;;;;5005073;28;20090;-80
2022/03/02 02:44:02;;;;;;;10.82;5.57;;;;;;;;;;5003775;28;20109;-80
2022/03/02 02:46:27;;;;;;;16.10;6.93;;;;;;;;;;5001954;28;20105;-78
2022/03/02 02:48:52;;;;;;;18.08;8.18;;;;;;;;;;5001855;28;20071;-80
2022/03/02 02:51:18;;;;;;;20.00;7.50;;;;;;;;;;5002534;28;20388;-79
2022/03/02 02:53:44;;;;;;;17.52;7.50;;;;;;;;;;5004675;28;20044;-79
2022/03/02 02:56:09;;;;;;;14.93;6.82;;;;;;;;;;5005011;28;20038;-79
2022/03/02 02:58:35;;;;;;;17.17;6.45;;;;;;;;;;4988033;28;20054;-79
2022/03/02 03:01:00;;;;;;;19.58;7.45;;;;;;;;;;5008027;28;20018;-79
2022/03/02 03:03:25;;;;;;;13.35;5.85;;;;;;;;;;5009846;28;20027;-78
2022/03/02 03:05:52;;;;;;;15.25;6.88;;;;;;;;;;5010567;28;20108;-79
2022/03/02 03:08:17;;;;;;;15.73;5.55;;;;;;;;;;5011544;28;20530;-79
2022/03/02 03:10:45;;;;;;;11.48;6.05;;;;;;;;;;5010675;28;20042;-79
2022/03/02 03:13:11;;;;;;;15.45;6.10;;;;;;;;;;4992376;28;20029;-81
2022/03/02 03:15:37;;;;;;;11.38;5.60;;;;;;;;;;5010456;28;20031;-79
2022/03/02 03:18:03;;;;;;;14.05;6.93;;;;;;;;;;5009769;28;20034;-80
2022/03/02 03:20:29;;;;;;;14.02;6.55;;;;;;;;;;4992253;28;20057;-82
2022/03/02 03:22:56;;;;;;;14.25;5.85;;;;;;;;;;5009504;28;20034;-82
2022/03/02 03:25:22;;;;;;;12.05;5.85;;;;;;;;;;5010271;28;20404;-80
2022/03/02 03:27:49;;;;;;;13.05;6.22;;;;;;;;;;4993036;28;20030;-82
2022/03/02 03:30:16;;;;;;;17.70;6.25;;;;;;;;;;4992591;28;20026;-82
2022/03/02 03:32:42;;;;;;;19.35;6.55;;;;;;;;;;5010008;28;20033;-80
2022/03/02 03:35:08;;;;;;;14.20;6.05;;;;;;;;;;5009749;28;20026;-79
2022/03/02 03:37:34;;;;;;;14.13;6.53;;;;;;;;;;4991827;28;20029;-80
2022/03/02 03:39:59;;;;;;;15.70;6.88;;;;;;;;;;5008518;28;20034;-81
2022/03/02 03:42:25;;;;;;;22.30;8.25;;;;;;;;;;4992313;28;20030;-79
2022/03/02 03:44:50;;;;;;;18.55;8.27;;;;;;;;;;5008803;28;20042;-80
2022/03/02 03:47:16;;;;;;;21.17;8.65;;;;;;;;;;4991563;28;20396;-79
2022/03/02 03:49:41;;;;;;;18.23;8.15;;;;;;;;;;5009892;28;20026;-80
2022/03/02 03:52:07;;;;;;;16.73;6.75;;;;;;;;;;5009320;28;20026;-79
2022/03/02 03:54:32;;;;;;;17.95;6.55;;;;;;;;;;4991304;28;20026;-80
2022/03/02 03:56:57;;;;;;;15.25;6.55;;;;;;;;;;5008160;28;20068;-78
2022/03/02 03:59:23;;;;;;;14.40;6.25;;;;;;;;;;5010186;28;20395;-80
2022/03/02 04:01:48;;;;;;;12.50;6.82;;;;;;;;;;5009407;28;20018;-80
2022/03/02 04:04:13;;;;;;;17.13;7.35;;;;;;;;;;4991700;28;20030;-80
2022/03/02 04:06:39;;;;;;;15.85;6.63;;;;;;;;;;5009478;28;20037;-79
2022/03/02 04:09:04;;;;;;;13.45;6.03;;;;;;;;;;4990165;28;20026;-80
2022/03/02 04:11:30;;;;;;;16.02;6.68;;;;;;;;;;5007580;28;20030;-81
2022/03/02 04:13:56;;;;;;;16.05;7.47;;;;;;;;;;5007978;28;20109;-79
2022/03/02 04:16:21;;;;;;;18.05;8.05;;;;;;;;;;5007374;28;20057;-79
2022/03/02 04:18:46;;;;;;;14.65;6.32;;;;;;;;;;5006924;28;20030;-80
2022/03/02 04:21:12;;;;;;;14.85;6.57;;;;;;;;;;5007278;28;20065;-80
2022/03/02 04:23:37;;;;;;;14.35;6.68;;;;;;;;;;5008238;28;20030;-80
2022/03/02 04:26:02;;;;;;;14.50;6.93;;;;;;;;;;5007851;28;20086;-80
2022/03/02 04:28:29;;;;;;;18.80;7.40;;;;;;;;;;4991192;28;20030;-81
2022/03/02 04:30:54;;;;;;;14.85;7.25;;;;;;;;;;5008211;28;20023;-80
2022/03/02 04:33:19;;;;;;;22.15;9.43;;;;;;;;;;5008040;28;20383;-78
2022/03/02 04:35:45;;;;;;;17.98;8.57;;;;;;;;;;5008000;28;20026;-80
2022/03/02 04:38:10;;;;;;;21.60;8.75;;;;;;;;;;4989599;28;20027;-79
2022/03/02 04:40:36;;;;;;;19.88;7.75;;;;;;;;;;5007276;28;20029;-79
2022/03/02 04:43:01;;;;;;;21.52;8.65;;;;;;;;;;5006483;28;20033;-80
2022/03/02 04:45:27;;;;;;;20.92;8.00;;;;;;;;;;5007056;28;20483;-80
2022/03/02 04:47:53;;;;;;;15.77;7.57;;;;;;;;;;4989293;28;20025;-79
2022/03/02 04:50:19;;;;;;;18.67;7.93;;;;;;;;;;5005381;28;20081;-79
2022/03/02 04:52:45;;;;;;;17.65;7.95;;;;;;;;;;5003928;28;20026;-78
2022/03/02 04:55:11;;;;;;;14.57;7.25;;;;;;;;;;5005281;28;20073;-79
2022/03/02 04:57:41;;;;;;;13.70;6.47;;;;;;;;;;5005016;28;20031;-78
2022/03/02 05:00:10;;;;;;;15.15;7.53;;;;;;;;;;5003773;28;20030;-79
2022/03/02 05:02:36;;;;;;;14.40;6.90;;;;;;;;;;5001461;28;20030;-80
2022/03/02 05:05:02;;;;;;;16.85;7.15;;;;;;;;;;5005780;28;20049;-79
2022/03/02 05:07:28;;;;;;;12.85;5.97;;;;;;;;;;4990616;28;20029;-79
2022/03/02 05:09:53;;;;;;;17.42;7.03;;;;;;;;;;5007573;28;20053;-81
2022/03/02 05:12:18;;;;;;;20.05;7.38;;;;;;;;;;5007317;28;20035;-81
2022/03/02 05:14:43;;;;;;;14.07;6.38;;;;;;;;;;5006110;28;20060;-80
2022/03/02 05:17:09;;;;;;;15.32;6.82;;;;;;;;;;5004633;28;20022;-80
2022/03/02 05:19:34;;;;;;;17.23;7.55;;;;;;;;;;5004053;28;20030;-80
2022/03/02 05:21:59;;;;;;;16.02;6.85;;;;;;;;;;5002367;28;20026;-80
2022/03/02 05:24:25;;;;;;;20.50;7.63;;;;;;;;;;4981677;28;20037;-79
2022/03/02 05:26:50;;;;;;;14.85;7.35;;;;;;;;;;4998155;28;20388;-81
2022/03/02 05:29:15;;;;;;;16.42;7.95;;;;;;;;;;4998789;28;20022;-78
2022/03/02 05:31:40;;;;;;;20.38;7.97;;;;;;;;;;4998882;28;20030;-80
2022/03/02 05:34:06;;;;;;;16.23;8.05;;;;;;;;;;5000477;28;20117;-79
2022/03/02 05:36:32;;;;;;;19.60;7.75;;;;;;;;;;5006919;28;20033;-79
2022/03/02 05:38:57;;;;;;;15.40;7.65;;;;;;;;;;4988980;28;20058;-79
2022/03/02 05:41:23;;;;;;;18.55;7.70;;;;;;;;;;5005809;28;20037;-79
2022/03/02 05:43:48;;;;;;;18.10;7.55;;;;;;;;;;5007389;28;20061;-79
2022/03/02 05:46:14;;;;;;;19.83;8.15;;;;;;;;;;5006922;28;20046;-79
2022/03/02 05:48:39;;;;;;;20.17;8.80;;;;;;;;;;5006443;28;20447;-79
2022/03/02 05:51:05;;;;;;;19.65;7.45;;;;;;;;;;4987307;28;20097;-79
2022/03/02 05:53:30;;;;;;;19.80;8.25;;;;;;;;;;4988731;28;20026;-79
2022/03/02 05:55:55;;;;;;;19.83;8.18;;;;;;;;;;5007695;28;20033;-80
2022/03/02 05:58:20;;;;;;;16.35;8.02;;;;;;;;;;4990527;28;20054;-80
2022/03/02 06:00:46;;;;;;;18.15;8.48;;;;;;;;;;4990069;28;20391;-79
2022/03/02 06:03:11;;;;;;;21.38;8.48;;;;;;;;;;5008039;28;20026;-79
2022/03/02 06:05:36;;;;;;;20.30;8.07;;;;;;;;;;4990519;28;20031;-80
2022/03/02 06:08:02;;;;;;;16.52;8.18;;;;;;;;;;4990708;28;20026;-81
2022/03/02 06:10:27;;;;;;;19.75;8.55;;;;;;;;;;5007232;28;20020;-80
2022/03/02 06:12:53;;;;;;;22.85;9.32;;;;;;;;;;5005918;28;20030;-79
2022/03/02 06:15:18;;;;;;;24.73;9.05;;;;;;;;;;5007315;28;20019;-80
2022/03/02 06:17:44;;;;;;;20.90;8.95;;;;;;;;;;5006675;28;20034;-80
2022/03/02 06:20:10;;;;;;;20.85;8.73;;;;;;;;;;5007144;28;20030;-80
2022/03/02 06:22:36;;;;;;;21.67;8.68;;;;;;;;;;5007236;28;20037;-80
2022/03/02 06:25:01;;;;;;;18.15;8.07;;;;;;;;;;5004307;28;20026;-78
2022/03/02 06:27:26;;;;;;;15.30;7.68;;;;;;;;;;5001997;28;20033;-80
2022/03/02 06:29:51;;;;;;;22.92;9.18;;;;;;;;;;5003356;28;20033;-78
2022/03/02 06:32:17;;;;;;;17.45;8.02;;;;;;;;;;5003047;28;20034;-79
2022/03/02 06:34:42;;;;;;;20.70;8.73;;;;;;;;;;5002382;28;20025;-78
2022/03/02 06:37:08;;;;;;;18.08;8.10;;;;;;;;;;5007450;28;20030;-77
2022/03/02 06:39:33;;;;;;;21.08;8.88;;;;;;;;;;4990206;28;20089;-79
2022/03/02 06:42:23;;;;;;;16.15;8.02;;;;;;;;;;5006525;28;20049;-79
2022/03/02 06:44:56;;;;;;;19.83;8.68;;;;;;;;;;5006771;28;20054;-80
2022/03/02 06:47:27;;;;;;;22.88;9.00;;;;;;;;;;5008645;28;20030;-80
2022/03/02 06:50:06;;;;;;;21.90;8.88;;;;;;;;;;5007510;28;20022;-79
2022/03/02 06:52:35;;;;;;;27.33;10.38;;;;;;;;;;5007857;28;20045;-79
2022/03/02 06:55:05;;;;;;;21.70;8.50;;;;;;;;;;5008369;28;20022;-80
2022/03/02 06:57:31;;;;;;;22.13;7.97;;;;;;;;;;5009068;28;20480;-78
2022/03/02 07:00:08;;;;;;;17.45;8.00;;;;;;;;;;5011220;28;20129;-80
2022/03/02 07:02:38;;;;;;;19.60;8.45;;;;;;;;;;5014407;28;20022;-81
2022/03/02 07:05:05;;;;;;;19.33;7.55;;;;;;;;;;5013651;28;20030;-80
2022/03/02 07:07:31;;;;;;;18.85;8.52;;;;;;;;;;4995889;28;20026;-80
2022/03/02 07:09:57;;;;;;;16.27;8.43;;;;;;;;;;5010265;28;20112;-80
2022/03/02 07:12:23;;;;;;;18.38;8.13;;;;;;;;;;5008961;28;20022;-80
2022/03/02 07:14:50;;;;;;;19.27;7.88;;;;;;;;;;5009727;28;20022;-81
2022/03/02 07:17:15;;;;;;;23.60;8.52;;;;;;;;;;4992474;28;20086;-80
2022/03/02 07:19:40;;;;;;;19.48;8.38;;;;;;;;;;5007449;28;20061;-79
2022/03/02 07:22:08;;;;;;;18.02;7.28;;;;;;;;;;5007124;28;20492;-79
2022/03/02 07:24:39;;;;;;;18.40;7.78;;;;;;;;;;5007962;28;20027;-79
2022/03/02 07:27:05;;;;;;;16.55;7.82;;;;;;;;;;5007279;28;20097;-81
2022/03/02 07:29:34;;;;;;;19.08;8.82;;;;;;;;;;4989283;28;20061;-80
2022/03/02 07:32:00;;;;;;;21.73;8.90;;;;;;;;;;5012520;28;20463;-79
2022/03/02 07:34:26;;;;;;;22.58;8.48;;;;;;;;;;5009363;28;20028;-80
2022/03/02 07:36:52;;;;;;;20.20;8.30;;;;;;;;;;5010515;28;20022;-80
2022/03/02 07:39:18;;;;;;;19.13;8.77;;;;;;;;;;4992158;28;20018;-79
2022/03/02 07:41:43;;;;;;;19.77;8.77;;;;;;;;;;5006416;28;20053;-79
2022/03/02 07:44:10;;;;;;;17.65;8.48;;;;;;;;;;5006721;28;20053;-78
2022/03/02 07:46:36;;;;;;;16.73;8.02;;;;;;;;;;5005346;28;20037;-78
2022/03/02 07:49:02;;;;;;;18.48;8.25;;;;;;;;;;5000840;28;20495;-78
2022/03/02 07:51:27;;;;;;;22.85;8.93;;;;;;;;;;5001842;28;20022;-79
2022/03/02 07:54:00;;;;;;;22.65;9.30;;;;;;;;;;4983980;28;20031;-80
2022/03/02 07:56:28;;;;;;;18.92;9.15;;;;;;;;;;4999271;28;20443;-76
2022/03/02 07:58:54;;;;;;;19.77;9.07;;;;;;;;;;4996224;28;20081;-76
2022/03/02 08:01:23;;;;;;;17.73;7.63;;;;;;;;;;4978537;28;20081;-76
2022/03/02 08:03:48;;;;;;;23.25;9.75;;;;;;;;;;4978780;28;20372;-76
2022/03/02 08:06:15;;;;;;;17.25;8.88;;;;;;;;;;4996210;28;20037;-75
2022/03/02 08:08:40;;;;;;;20.27;8.70;;;;;;;;;;4978395;28;20045;-76
2022/03/02 08:11:06;;;;;;;22.70;9.48;;;;;;;;;;4998792;28;20022;-80
2022/03/02 08:13:34;;;;;;;19.05;8.70;;;;;;;;;;5004434;28;20401;-81
2022/03/02 08:16:00;;;;;;;20.98;8.80;;;;;;;;;;5002570;28;20046;-81
2022/03/02 08:18:27;;;;;;;20.92;8.77;;;;;;;;;;5002456;28;20030;-81
2022/03/02 08:20:54;;;;;;;15.73;8.00;;;;;;;;;;5002072;28;20026;-80
2022/03/02 08:23:21;;;;;;;19.25;9.20;;;;;;;;;;5004381;28;20037;-82
2022/03/02 08:25:50;;;;;;;18.80;8.98;;;;;;;;;;5002518;28;20058;-82
2022/03/02 08:28:17;;;;;;;17.98;8.75;;;;;;;;;;5002695;28;20030;-81
2022/03/02 08:30:45;;;;;;;20.83;8.90;;;;;;;;;;4986101;28;20026;-80
2022/03/02 08:33:16;;;;;;;20.30;9.88;;;;;;;;;;5002779;28;20057;-81
2022/03/02 08:35:42;;;;;;;18.05;9.27;;;;;;;;;;5003432;28;20033;-80
2022/03/02 08:38:09;;;;;;;21.73;9.48;;;;;;;;;;5003776;28;20500;-81
2022/03/02 08:40:35;;;;;;;19.83;8.52;;;;;;;;;;4988070;28;20026;-80
2022/03/02 08:43:01;;;;;;;18.77;9.05;;;;;;;;;;5004820;28;20472;-81
2022/03/02 08:45:27;;;;;;;21.55;9.85;;;;;;;;;;4987054;28;20026;-79
2022/03/02 08:47:53;;;;;;;23.15;8.50;;;;;;;;;;5005233;28;20451;-81
2022/03/02 08:50:19;;;;;;;18.80;8.75;;;;;;;;;;5006683;28;20395;-80
2022/03/02 08:52:44;;;;;;;19.60;8.73;;;;;;;;;;4986899;28;20025;-80
2022/03/02 08:55:10;;;;;;;15.70;8.13;;;;;;;;;;4987111;28;20034;-80
2022/03/02 08:57:39;;;;;;;20.73;9.30;;;;;;;;;;5004326;28;20081;-80
2022/03/02 09:00:07;;;;;;;17.75;9.05;;;;;;;;;;5004261;28;20029;-81
2022/03/02 09:02:35;;;;;;;23.10;9.68;;;;;;;;;;5003389;28;20491;-81
2022/03/02 09:05:02;;;;;;;21.08;9.70;;;;;;;;;;4985342;28;20026;-81
2022/03/02 09:07:27;;;;;;;20.23;8.90;;;;;;;;;;5003566;28;20034;-80
2022/03/02 09:09:53;;;;;;;17.48;9.10;;;;;;;;;;4986484;28;20026;-80
2022/03/02 09:12:18;;;;;;;19.85;9.55;;;;;;;;;;5005083;28;20049;-80
2022/03/02 09:14:44;;;;;;;20.65;8.75;;;;;;;;;;5009072;28;20049;-80
2022/03/02 09:17:10;;;;;;;15.75;8.43;;;;;;;;;;4986825;28;20162;-79
2022/03/02 09:19:35;;;;;;;18.52;8.75;;;;;;;;;;5002896;28;20050;-80
2022/03/02 09:22:03;;;;;;;20.17;8.48;;;;;;;;;;5006884;28;20056;-81
2022/03/02 09:24:30;;;;;;;20.17;9.90;;;;;;;;;;5009308;28;20022;-81
2022/03/02 09:26:57;;;;;;;18.45;9.07;;;;;;;;;;5010289;28;20045;-81
2022/03/02 09:29:28;;;;;;;18.63;8.65;;;;;;;;;;4992248;28;20045;-81
2022/03/02 09:31:56;;;;;;;20.13;7.50;;;;;;;;;;5010747;28;20097;-80
2022/03/02 09:34:29;;;;;;;20.05;8.93;;;;;;;;;;5010171;28;20035;-80
2022/03/02 09:36:56;;;;;;;14.25;7.53;;;;;;;;;;5005500;28;20026;-79
2022/03/02 09:39:23;;;;;;;20.30;8.60;;;;;;;;;;5007411;28;20034;-80
2022/03/02 09:41:58;;;;;;;19.45;8.68;;;;;;;;;;4986791;28;20031;-79
2022/03/02 09:44:30;;;;;;;17.17;8.25;;;;;;;;;;4989422;28;20540;-80
2022/03/02 09:46:56;;;;;;;18.92;8.50;;;;;;;;;;5007735;28;20026;-80
2022/03/02 09:49:23;;;;;;;17.42;8.27;;;;;;;;;;4990350;28;20036;-80
2022/03/02 09:52:04;;;;;;;19.95;8.80;;;;;;;;;;5008581;28;20026;-81
2022/03/02 09:54:36;;;;;;;17.35;8.65;;;;;;;;;;5009367;28;20091;-79
2022/03/02 09:57:03;;;;;;;19.40;8.93;;;;;;;;;;4993228;28;20091;-81
2022/03/02 09:59:35;;;;;;;17.50;8.05;;;;;;;;;;5008779;28;20026;-80
2022/03/02 10:02:02;;;;;;;17.05;8.20;;;;;;;;;;4991187;28;20033;-82
2022/03/02 10:04:29;;;;;;;16.23;8.13;;;;;;;;;;5008946;28;20150;-81
2022/03/02 10:07:26;;;;;;;16.35;8.15;;;;;;;;;;4990129;28;20046;-81
2022/03/02 10:09:47;;;;;;;16.60;8.30;;;;;;;;;;5006390;28;20061;-81
2022/03/02 10:12:15;;;;;;;17.65;8.15;;;;;;;;;;4990803;28;20030;-81
2022/03/02 10:14:42;;;;;;;18.60;7.93;;;;;;;;;;5008623;28;20477;-80
2022/03/02 10:17:11;;;;;;;15.57;8.15;;;;;;;;;;5007989;28;20518;-79
2022/03/02 10:19:44;;;;;;;16.83;8.38;;;;;;;;;;4989082;28;20110;-80
2022/03/02 10:22:39;;;;;;;21.38;8.43;;;;;;;;;;4988668;28;20027;-79
2022/03/02 10:25:05;;;;;;;;;;;;;;;;;;4988341;28;20034;-79
2022/03/02 10:27:39;;;;;;;13.05;6.80;;;;;;;;;;5006596;28;20290;-79
2022/03/02 10:30:10;;;;;;;15.95;7.28;;;;;;;;;;5005935;28;20500;-80
2022/03/02 10:32:39;;;;;;;14.10;7.57;;;;;;;;;;5004671;28;20030;-79
2022/03/02 10:35:08;;;;;;;17.30;8.30;;;;;;;;;;5004735;28;20035;-80
2022/03/02 10:37:38;;;;;;;13.82;7.05;;;;;;;;;;4987592;28;20029;-79
2022/03/02 10:40:09;;;;;;;14.70;6.30;;;;;;;;;;4988601;28;20121;-81
2022/03/02 10:42:51;;;;;;;14.98;6.95;;;;;;;;;;5005694;28;20042;-80
2022/03/02 10:45:26;;;;;;;10.98;6.50;;;;;;;;;;4988887;28;20349;-79
2022/03/02 10:47:54;;;;;;;14.63;7.28;;;;;;;;;;5002246;28;20026;-79
2022/03/02 10:50:21;;;;;;;13.57;6.78;;;;;;;;;;4986517;28;20456;-80
2022/03/02 10:52:48;;;;;;;15.02;7.72;;;;;;;;;;5004502;28;20395;-81
2022/03/02 10:55:13;;;;;;;13.80;7.22;;;;;;;;;;5006011;28;20030;-81
2022/03/02 10:57:40;;;;;;;13.38;7.10;;;;;;;;;;5005804;28;20034;-79
2022/03/02 11:00:09;;;;;;;14.98;7.13;;;;;;;;;;5005018;28;20030;-79
2022/03/02 11:02:39;;;;;;;13.45;6.60;;;;;;;;;;4988421;28;20030;-79
2022/03/02 11:05:08;;;;;;;13.93;7.30;;;;;;;;;;5006074;28;20037;-80
2022/03/02 11:07:35;;;;;;;12.95;7.22;;;;;;;;;;5005533;28;20034;-79
2022/03/02 11:10:03;;;;;;;14.65;7.07;;;;;;;;;;4989177;28;20081;-80
2022/03/02 11:12:29;;;;;;;12.75;6.60;;;;;;;;;;5005486;28;20057;-80
2022/03/02 11:14:57;;;;;;;12.75;7.03;;;;;;;;;;5005015;28;20055;-80
2022/03/02 11:17:23;;;;;;;12.90;7.13;;;;;;;;;;5005148;28;20082;-80
2022/03/02 11:19:49;;;;;;;12.77;6.93;;;;;;;;;;4987243;28;20054;-81
2022/03/02 11:22:17;;;;;;;12.75;6.30;;;;;;;;;;4988464;28;20037;-80
2022/03/02 11:24:44;;;;;;;13.13;6.32;;;;;;;;;;5007855;28;20027;-81
2022/03/02 11:27:28;;;;;;;15.18;7.40;;;;;;;;;;5007899;28;20027;-80
2022/03/02 11:30:21;;;;;;;13.02;6.95;;;;;;;;;;4990479;28;20023;-80
2022/03/02 11:32:47;;;;;;;10.77;6.32;;;;;;;;;;5006197;28;20077;-80
2022/03/02 11:35:17;;;;;;;12.70;6.53;;;;;;;;;;5008987;28;20031;-80
2022/03/02 11:37:43;;;;;;;12.50;6.60;;;;;;;;;;4993484;28;20026;-80
2022/03/02 11:40:11;;;;;;;14.35;7.18;;;;;;;;;;5009890;28;20022;-79
2022/03/02 11:42:38;;;;;;;14.55;7.03;;;;;;;;;;4994474;28;20042;-79
2022/03/02 11:45:05;;;;;;;13.27;6.95;;;;;;;;;;4975770;28;20042;-80
2022/03/02 11:47:39;;;;;;;16.15;7.07;;;;;;;;;;5008089;28;20030;-80
2022/03/02 11:50:05;;;;;;;;;;;;;;;;;;4985172;28;20026;-80
2022/03/02 11:52:33;;;;;;;12.95;6.80;;;;;;;;;;4984477;28;19914;-80
2022/03/02 11:55:00;;;;;;;11.45;6.03;;;;;;;;;;5003304;28;20025;-80
2022/03/02 11:57:29;;;;;;;11.30;6.22;;;;;;;;;;4986350;28;20033;-80
2022/03/02 12:00:19;;;;;;;13.30;6.97;;;;;;;;;;4989335;28;20113;-80
2022/03/02 12:02:48;;;;;;;13.90;6.63;;;;;;;;;;5007401;28;20027;-79
2022/03/02 12:05:14;;;;;;;12.65;6.65;;;;;;;;;;4990401;28;20022;-80
2022/03/02 12:07:47;;;;;;;14.27;6.80;;;;;;;;;;4990403;28;20117;-79
2022/03/02 12:10:20;;;;;;;15.85;7.07;;;;;;;;;;5009601;28;20019;-80
2022/03/02 12:12:46;;;;;;;15.73;7.10;;;;;;;;;;5008241;28;20034;-80
2022/03/02 12:15:12;;;;;;;12.77;6.40;;;;;;;;;;5009658;28;20022;-80
2022/03/02 12:17:37;;;;;;;17.27;6.63;;;;;;;;;;5009371;28;20089;-80
2022/03/02 12:20:12;;;;;;;14.38;6.60;;;;;;;;;;4992833;28;20022;-80
2022/03/02 12:22:41;;;;;;;14.75;6.60;;;;;;;;;;5009295;28;20082;-79
2022/03/02 12:25:10;;;;;;;12.50;6.72;;;;;;;;;;5008894;28;20500;-81
2022/03/02 12:27:35;;;;;;;17.42;6.88;;;;;;;;;;5009996;28;20025;-79
2022/03/02 12:30:07;;;;;;;14.98;6.80;;;;;;;;;;4992347;28;20042;-81
2022/03/02 12:32:36;;;;;;;20.63;6.82;;;;;;;;;;4991734;28;20089;-80
2022/03/02 12:35:06;;;;;;;12.30;5.93;;;;;;;;;;5010570;28;20026;-79
2022/03/02 12:37:32;;;;;;;11.40;6.10;;;;;;;;;;5010250;28;20049;-80
2022/03/02 12:39:57;;;;;;;14.52;6.75;;;;;;;;;;5010271;28;20027;-79
2022/03/02 12:42:23;;;;;;;13.63;6.05;;;;;;;;;;4992837;28;20060;-80
2022/03/02 12:44:54;;;;;;;19.15;7.22;;;;;;;;;;5010288;28;20072;-79
2022/03/02 12:47:25;;;;;;;13.55;6.80;;;;;;;;;;5009972;28;20053;-81
2022/03/02 12:49:50;;;;;;;13.05;6.47;;;;;;;;;;4993474;28;20053;-79
2022/03/02 12:52:17;;;;;;;12.00;6.30;;;;;;;;;;4991779;28;20022;-79
2022/03/02 12:54:43;;;;;;;19.40;6.18;;;;;;;;;;5010250;28;20038;-80
2022/03/02 12:57:13;;;;;;;12.23;5.75;;;;;;;;;;5009651;28;20038;-79
2022/03/02 12:59:42;;;;;;;13.68;6.63;;;;;;;;;;4991844;28;20037;-79
2022/03/02 13:02:11;;;;;;;14.70;6.47;;;;;;;;;;5008101;28;20034;-80
2022/03/02 13:04:58;;;;;;;12.60;6.32;;;;;;;;;;5008649;28;20452;-79
2022/03/02 13:07:38;;;;;;;14.02;6.32;;;;;;;;;;5009911;28;20022;-79
2022/03/02 13:10:07;;;;;;;11.07;6.00;;;;;;;;;;5010300;28;20074;-81
2022/03/02 13:12:39;;;;;;;11.05;6.00;;;;;;;;;;5009788;28;20026;-79
2022/03/02 13:15:30;;;;;;;10.02;5.38;;;;;;;;;;4991613;28;20396;-79
2022/03/02 13:18:08;;;;;;;16.40;5.88;;;;;;;;;;5003628;28;20049;-80
2022/03/02 13:20:38;;;;;;;10.45;5.57;;;;;;;;;;4987377;28;20478;-80
2022/03/02 13:23:15;;;;;;;10.75;5.85;;;;;;;;;;5007019;28;20094;-80
2022/03/02 13:26:09;;;;;;;10.82;5.80;;;;;;;;;;4989960;28;20113;-79
2022/03/02 13:28:36;;;;;;;;;;;;;;;;;;4989640;28;20392;-80
2022/03/02 13:31:04;;;;;;;10.32;5.35;;;;;;;;;;5008037;28;19909;-80
2022/03/02 13:33:30;;;;;;;13.23;5.72;;;;;;;;;;4990423;28;20098;-80
2022/03/02 13:35:59;;;;;;;11.77;5.95;;;;;;;;;;5006604;28;20393;-80
2022/03/02 13:38:42;;;;;;;9.75;5.43;;;;;;;;;;4988615;28;20022;-80
2022/03/02 13:41:07;;;;;;;10.30;5.75;;;;;;;;;;4989608;28;20026;-83
2022/03/02 13:43:34;;;;;;;10.27;5.50;;;;;;;;;;5008414;28;20034;-81
2022/03/02 13:45:59;;;;;;;10.80;5.28;;;;;;;;;;5009972;28;20104;-80
2022/03/02 13:48:28;;;;;;;9.57;5.37;;;;;;;;;;5002735;28;20026;-81
2022/03/02 13:50:56;;;;;;;17.10;5.22;;;;;;;;;;4990346;28;20283;-80
2022/03/02 13:53:44;;;;;;;11.25;4.88;;;;;;;;;;4989040;28;20042;-81
2022/03/02 13:56:18;;;;;;;10.13;4.22;;;;;;;;;;4989412;28;20030;-79
2022/03/02 13:58:46;;;;;;;6.05;3.15;;;;;;;;;;5007137;28;20045;-80
2022/03/02 14:01:21;;;;;;;9.25;2.80;;;;;;;;;;5008579;28;20479;-79
2022/03/02 14:03:58;;;;;;;6.72;3.10;;;;;;;;;;5010320;28;20514;-80
2022/03/02 14:06:24;;;;;;;6.68;3.35;;;;;;;;;;5010616;28;20022;-80
2022/03/02 14:08:52;;;;;;;7.25;3.95;;;;;;;;;;4991233;28;20170;-79
2022/03/02 14:11:36;;;;;;;8.15;4.13;;;;;;;;;;4992412;28;20022;-78
2022/03/02 14:14:06;;;;;;;7.65;4.00;;;;;;;;;;4992857;28;20036;-80
2022/03/02 14:16:32;;;;;;;7.95;3.97;;;;;;;;;;5010936;28;20073;-80
2022/03/02 14:19:11;;;;;;;6.00;3.60;;;;;;;;;;5010750;28;20038;-81
2022/03/02 14:21:39;;;;;;;8.70;4.20;;;;;;;;;;4992330;28;20026;-80
2022/03/02 14:24:13;;;;;;;8.40;4.65;;;;;;;;;;4992152;28;20030;-80
2022/03/02 14:27:00;;;;;;;10.02;4.97;;;;;;;;;;5009709;28;20029;-80
2022/03/02 14:29:27;;;;;;;10.57;5.15;;;;;;;;;;5009673;28;20037;-80
2022/03/02 14:31:55;;;;;;;9.30;4.22;;;;;;;;;;4991208;28;20022;-79
2022/03/02 14:34:20;;;;;;;10.57;4.88;;;;;;;;;;4991967;28;20557;-79